sensor_id;sensor_type;location;lat;lon;timestamp;pressure;altitude;pressure_sealevel;temperature;humidity
55540;BME280;41384;51.418;7.286;2023-01-08T00:01:48;98793.28;;;9.75;100.00
55540;BME280;41384;51.418;7.286;2023-01-08T00:04:13;98787.44;;;9.73;100.00
55540;BME280;41384;51.418;7.286;2023-01-08T00:06:39;98792.63;;;9.80;100.00
55540;BME280;41384;51.418;7.286;2023-01-08T00:09:05;98780.25;;;9.80;100.00
55540;BME280;41384;51.418;7.286;2023-01-08T00:11:30;98785.63;;;9.85;100.00
55540;BME280;41384;51.418;7.286;2023-01-08T00:13:55;98779.34;;;9.86;100.00
55540;BME280;41384;51.418;7.286;2023-01-08T00:16:21;98774.31;;;9.85;100.00
55540;BME280;41384;51.418;7.286;2023-01-08T00:18:46;98770.22;;;9.58;100.00
55540;BME280;41384;51.418;7.286;2023-01-08T00:21:12;98784.34;;;9.76;100.00
55540;BME280;41384;51.418;7.286;2023-01-08T00:23:37;98784.44;;;9.69;100.00
55540;BME280;41384;51.418;7.286;2023-01-08T00:26:05;98773.25;;;9.74;100.00
55540;BME280;41384;51.418;7.286;2023-01-08T00:28:31;98776.25;;;9.77;100.00
55540;BME280;41384;51.418;7.286;2023-01-08T00:30:56;98773.28;;;9.86;100.00
55540;BME280;41384;51.418;7.286;2023-01-08T00:33:22;98764.75;;;9.72;100.00
55540;BME280;41384;51.418;7.286;2023-01-08T00:35:47;98756.59;;;9.61;100.00
55540;BME280;41384;51.418;7.286;2023-01-08T00:38:12;98746.53;;;9.58;100.00
55540;BME280;41384;51.418;7.286;2023-01-08T00:40:38;98739.72;;;9.51;100.00
55540;BME280;41384;51.418;7.286;2023-01-08T00:43:04;98742.50;;;9.56;100.00
55540;BME280;41384;51.418;7.286;2023-01-08T00:45:30;98745.25;;;9.61;100.00
55540;BME280;41384;51.418;7.286;2023-01-08T00:47:55;98749.28;;;9.63;100.00
55540;BME280;41384;51.418;7.286;2023-01-08T00:50:21;98746.41;;;9.65;100.00
55540;BME280;41384;51.418;7.286;2023-01-08T00:52:46;98747.09;;;9.60;100.00
55540;BME280;41384;51.418;7.286;2023-01-08T00:55:11;98747.09;;;9.60;100.00
55540;BME280;41384;51.418;7.286;2023-01-08T00:57:37;98749.81;;;9.54;100.00
55540;BME280;41384;51.418;7.286;2023-01-08T01:00:05;98747.69;;;9.62;100.00
55540;BME280;41384;51.418;7.286;2023-01-08T01:02:34;98737.72;;;9.64;100.00
55540;BME280;41384;51.418;7.286;2023-01-08T01:04:59;98737.81;;;9.58;100.00
55540;BME280;41384;51.418;7.286;2023-01-08T01:07:24;98738.84;;;9.57;100.00
55540;BME280;41384;51.418;7.286;2023-01-08T01:09:50;98713.06;;;9.47;100.00
55540;BME280;41384;51.418;7.286;2023-01-08T01:12:15;98727.78;;;9.36;100.00
55540;BME280;41384;51.418;7.286;2023-01-08T01:14:40;98726.94;;;9.54;100.00
55540;BME280;41384;51.418;7.286;2023-01-08T01:17:06;98717.53;;;9.58;100.00
55540;BME280;41384;51.418;7.286;2023-01-08T01:19:31;98718.22;;;9.54;100.00
55540;BME280;41384;51.418;7.286;2023-01-08T01:21:56;98718.09;;;9.48;100.00
55540;BME280;41384;51.418;7.286;2023-01-08T01:24:22;98718.78;;;9.44;100.00
55540;BME280;41384;51.418;7.286;2023-01-08T01:26:50;98733.56;;;9.45;100.00
55540;BME280;41384;51.418;7.286;2023-01-08T01:29:15;98728.75;;;9.54;100.00
55540;BME280;41384;51.418;7.286;2023-01-08T01:31:40;98734.38;;;9.57;100.00
55540;BME280;41384;51.418;7.286;2023-01-08T01:34:06;98731.50;;;9.47;100.00
55540;BME280;41384;51.418;7.286;2023-01-08T01:36:31;98717.28;;;9.48;100.00
55540;BME280;41384;51.418;7.286;2023-01-08T01:38:57;98720.72;;;9.48;100.00
55540;BME280;41384;51.418;7.286;2023-01-08T01:41:32;98721.78;;;9.59;100.00
55540;BME280;41384;51.418;7.286;2023-01-08T01:44:40;98728.41;;;9.62;100.00
55540;BME280;41384;51.418;7.286;2023-01-08T01:47:33;98731.41;;;9.66;100.00
55540;BME280;41384;51.418;7.286;2023-01-08T01:50:24;98726.94;;;9.66;100.00
55540;BME280;41384;51.418;7.286;2023-01-08T01:53:05;98731.97;;;9.56;100.00
55540;BME280;41384;51.418;7.286;2023-01-08T01:55:34;98732.56;;;9.70;100.00
55540;BME280;41384;51.418;7.286;2023-01-08T01:58:11;98730.97;;;9.69;100.00
55540;BME280;41384;51.418;7.286;2023-01-08T02:00:37;98722.69;;;9.53;100.00
55540;BME280;41384;51.418;7.286;2023-01-08T02:03:03;98719.47;;;9.51;100.00
55540;BME280;41384;51.418;7.286;2023-01-08T02:08:36;98726.03;;;9.60;100.00
55540;BME280;41384;51.418;7.286;2023-01-08T02:11:11;98733.34;;;9.70;100.00
55540;BME280;41384;51.418;7.286;2023-01-08T02:13:39;98720.19;;;9.58;100.00
55540;BME280;41384;51.418;7.286;2023-01-08T02:16:22;98716.97;;;9.56;100.00
55540;BME280;41384;51.418;7.286;2023-01-08T02:19:02;98717.28;;;9.48;100.00
55540;BME280;41384;51.418;7.286;2023-01-08T02:21:37;98710.09;;;9.55;100.00
55540;BME280;41384;51.418;7.286;2023-01-08T02:26:36;98699.78;;;9.66;100.00
55540;BME280;41384;51.418;7.286;2023-01-08T02:31:34;98713.75;;;9.54;100.00
55540;BME280;41384;51.418;7.286;2023-01-08T02:34:02;98709.31;;;9.67;100.00
55540;BME280;41384;51.418;7.286;2023-01-08T02:36:38;98707.34;;;9.50;100.00
55540;BME280;41384;51.418;7.286;2023-01-08T02:41:56;98683.25;;;9.34;100.00
55540;BME280;41384;51.418;7.286;2023-01-08T02:44:42;98674.63;;;9.27;100.00
55540;BME280;41384;51.418;7.286;2023-01-08T02:47:17;98678.69;;;9.42;100.00
55540;BME280;41384;51.418;7.286;2023-01-08T02:49:45;98678.81;;;9.47;100.00
55540;BME280;41384;51.418;7.286;2023-01-08T02:52:12;98672.28;;;9.38;100.00
55540;BME280;41384;51.418;7.286;2023-01-08T02:54:39;98661.91;;;9.24;100.00
55540;BME280;41384;51.418;7.286;2023-01-08T02:57:10;98662.97;;;9.35;100.00
55540;BME280;41384;51.418;7.286;2023-01-08T02:59:37;98660.94;;;9.37;100.00
55540;BME280;41384;51.418;7.286;2023-01-08T03:02:04;98657.47;;;9.25;100.00
55540;BME280;41384;51.418;7.286;2023-01-08T03:04:35;98647.41;;;9.22;100.00
55540;BME280;41384;51.418;7.286;2023-01-08T03:07:02;98648.41;;;9.20;100.00
55540;BME280;41384;51.418;7.286;2023-01-08T03:09:28;98643.38;;;9.19;100.00
55540;BME280;41384;51.418;7.286;2023-01-08T03:12:01;98618.06;;;9.18;100.00
55540;BME280;41384;51.418;7.286;2023-01-08T03:14:38;98622.75;;;9.16;100.00
55540;BME280;41384;51.418;7.286;2023-01-08T03:17:21;98624.69;;;9.09;100.00
55540;BME280;41384;51.418;7.286;2023-01-08T03:19:53;98626.41;;;9.03;100.00
55540;BME280;41384;51.418;7.286;2023-01-08T03:22:19;98625.97;;;9.18;100.00
55540;BME280;41384;51.418;7.286;2023-01-08T03:24:48;98618.75;;;9.13;100.00
55540;BME280;41384;51.418;7.286;2023-01-08T03:27:17;98626.63;;;9.01;100.00
55540;BME280;41384;51.418;7.286;2023-01-08T03:29:48;98614.66;;;9.17;100.00
55540;BME280;41384;51.418;7.286;2023-01-08T03:32:15;98629.75;;;9.10;100.00
55540;BME280;41384;51.418;7.286;2023-01-08T03:34:43;98624.59;;;9.15;100.00
55540;BME280;41384;51.418;7.286;2023-01-08T03:37:10;98620.13;;;9.04;100.00
55540;BME280;41384;51.418;7.286;2023-01-08T03:39:43;98620.56;;;9.13;100.00
55540;BME280;41384;51.418;7.286;2023-01-08T03:42:13;98608.56;;;9.17;100.00
55540;BME280;41384;51.418;7.286;2023-01-08T03:44:39;98603.31;;;9.17;100.00
55540;BME280;41384;51.418;7.286;2023-01-08T03:47:07;98622.19;;;9.14;100.00
55540;BME280;41384;51.418;7.286;2023-01-08T03:49:34;98606.84;;;9.11;100.00
55540;BME280;41384;51.418;7.286;2023-01-08T03:52:00;98611.31;;;9.22;100.00
55540;BME280;41384;51.418;7.286;2023-01-08T03:54:29;98609.13;;;9.07;100.00
55540;BME280;41384;51.418;7.286;2023-01-08T03:56:55;98602.84;;;9.20;100.00
55540;BME280;41384;51.418;7.286;2023-01-08T03:59:20;98610.88;;;9.13;100.00
55540;BME280;41384;51.418;7.286;2023-01-08T04:01:45;98611.78;;;9.19;100.00
55540;BME280;41384;51.418;7.286;2023-01-08T04:04:11;98595.06;;;9.13;100.00
55540;BME280;41384;51.418;7.286;2023-01-08T04:06:36;98603.78;;;9.26;100.00
55540;BME280;41384;51.418;7.286;2023-01-08T04:09:02;98595.97;;;9.19;100.00
55540;BME280;41384;51.418;7.286;2023-01-08T04:11:27;98602.63;;;9.22;100.00
55540;BME280;41384;51.418;7.286;2023-01-08T04:13:53;98615.56;;;9.23;100.00
55540;BME280;41384;51.418;7.286;2023-01-08T04:16:18;98602.06;;;9.19;100.00
55540;BME280;41384;51.418;7.286;2023-01-08T04:18:43;98607.19;;;9.26;100.00
55540;BME280;41384;51.418;7.286;2023-01-08T04:21:08;98607.66;;;9.23;100.00
55540;BME280;41384;51.418;7.286;2023-01-08T04:23:34;98607.31;;;9.19;100.00
55540;BME280;41384;51.418;7.286;2023-01-08T04:26:03;98603.66;;;9.20;100.00
55540;BME280;41384;51.418;7.286;2023-01-08T04:28:29;98609.75;;;9.33;100.00
55540;BME280;41384;51.418;7.286;2023-01-08T04:30:55;98606.78;;;9.29;100.00
55540;BME280;41384;51.418;7.286;2023-01-08T04:33:20;98604.56;;;9.14;100.00
55540;BME280;41384;51.418;7.286;2023-01-08T04:35:45;98593.91;;;9.21;100.00
55540;BME280;41384;51.418;7.286;2023-01-08T04:38:10;98593.72;;;9.23;100.00
55540;BME280;41384;51.418;7.286;2023-01-08T04:40:36;98575.94;;;9.06;100.00
55540;BME280;41384;51.418;7.286;2023-01-08T04:43:01;98579.03;;;9.15;100.00
55540;BME280;41384;51.418;7.286;2023-01-08T04:45:26;98579.72;;;9.10;100.00
55540;BME280;41384;51.418;7.286;2023-01-08T04:47:55;98583.19;;;9.34;100.00
55540;BME280;41384;51.418;7.286;2023-01-08T04:50:21;98582.06;;;9.30;100.00
55540;BME280;41384;51.418;7.286;2023-01-08T04:52:46;98582.16;;;9.36;100.00
55540;BME280;41384;51.418;7.286;2023-01-08T04:55:11;98579.16;;;9.32;100.00
55540;BME280;41384;51.418;7.286;2023-01-08T04:57:37;98594.97;;;9.32;100.00
55540;BME280;41384;51.418;7.286;2023-01-08T05:00:03;98593.38;;;9.31;100.00
55540;BME280;41384;51.418;7.286;2023-01-08T05:02:29;98591.41;;;9.26;100.00
55540;BME280;41384;51.418;7.286;2023-01-08T05:04:54;98581.56;;;9.22;100.00
55540;BME280;41384;51.418;7.286;2023-01-08T05:07:19;98577.66;;;9.12;100.00
55540;BME280;41384;51.418;7.286;2023-01-08T05:09:44;98572.16;;;9.14;100.00
55540;BME280;41384;51.418;7.286;2023-01-08T05:12:10;98559.66;;;8.97;100.00
55540;BME280;41384;51.418;7.286;2023-01-08T05:14:35;98552.94;;;9.01;100.00
55540;BME280;41384;51.418;7.286;2023-01-08T05:17:00;98556.59;;;9.00;100.00
55540;BME280;41384;51.418;7.286;2023-01-08T05:19:25;98560.59;;;9.03;100.00
55540;BME280;41384;51.418;7.286;2023-01-08T05:21:51;98552.72;;;9.15;100.00
55540;BME280;41384;51.418;7.286;2023-01-08T05:24:16;98565.50;;;8.99;100.00
55540;BME280;41384;51.418;7.286;2023-01-08T05:26:41;98560.72;;;9.08;100.00
55540;BME280;41384;51.418;7.286;2023-01-08T05:29:06;98563.13;;;9.10;100.00
55540;BME280;41384;51.418;7.286;2023-01-08T05:31:32;98551.09;;;9.14;100.00
55540;BME280;41384;51.418;7.286;2023-01-08T05:33:57;98559.13;;;9.19;100.00
55540;BME280;41384;51.418;7.286;2023-01-08T05:36:23;98547.78;;;9.07;100.00
55540;BME280;41384;51.418;7.286;2023-01-08T05:38:48;98538.50;;;9.16;100.00
55540;BME280;41384;51.418;7.286;2023-01-08T05:41:14;98552.81;;;9.20;100.00
55540;BME280;41384;51.418;7.286;2023-01-08T05:43:39;98538.41;;;8.99;100.00
55540;BME280;41384;51.418;7.286;2023-01-08T05:46:04;98540.59;;;9.02;100.00
55540;BME280;41384;51.418;7.286;2023-01-08T05:48:31;98542.41;;;9.01;100.00
55540;BME280;41384;51.418;7.286;2023-01-08T05:50:57;98539.78;;;9.13;100.00
55540;BME280;41384;51.418;7.286;2023-01-08T05:53:22;98544.81;;;9.03;100.00
55540;BME280;41384;51.418;7.286;2023-01-08T05:55:47;98543.00;;;9.15;100.00
55540;BME280;41384;51.418;7.286;2023-01-08T05:58:12;98544.94;;;9.32;100.00
55540;BME280;41384;51.418;7.286;2023-01-08T06:00:38;98552.06;;;9.31;100.00
55540;BME280;41384;51.418;7.286;2023-01-08T06:03:04;98551.69;;;9.28;100.00
55540;BME280;41384;51.418;7.286;2023-01-08T06:05:31;98553.41;;;9.34;100.00
55540;BME280;41384;51.418;7.286;2023-01-08T06:07:57;98552.63;;;9.33;100.00
55540;BME280;41384;51.418;7.286;2023-01-08T06:10:22;98542.88;;;9.22;100.00
55540;BME280;41384;51.418;7.286;2023-01-08T06:12:48;98555.25;;;9.33;100.00
55540;BME280;41384;51.418;7.286;2023-01-08T06:15:13;98547.69;;;9.25;100.00
55540;BME280;41384;51.418;7.286;2023-01-08T06:17:38;98552.06;;;9.31;100.00
55540;BME280;41384;51.418;7.286;2023-01-08T06:20:04;98542.09;;;9.33;100.00
55540;BME280;41384;51.418;7.286;2023-01-08T06:22:30;98548.25;;;9.27;100.00
55540;BME280;41384;51.418;7.286;2023-01-08T06:24:55;98538.50;;;9.16;100.00
55540;BME280;41384;51.418;7.286;2023-01-08T06:27:20;98542.84;;;8.98;100.00
55540;BME280;41384;51.418;7.286;2023-01-08T06:29:45;98536.00;;;9.21;100.00
55540;BME280;41384;51.418;7.286;2023-01-08T06:32:11;98538.50;;;9.16;100.00
55540;BME280;41384;51.418;7.286;2023-01-08T06:34:36;98543.56;;;9.17;100.00
55540;BME280;41384;51.418;7.286;2023-01-08T06:37:01;98544.81;;;9.03;100.00
55540;BME280;41384;51.418;7.286;2023-01-08T06:39:26;98547.00;;;9.06;100.00
55540;BME280;41384;51.418;7.286;2023-01-08T06:41:52;98546.75;;;9.08;100.00
55540;BME280;41384;51.418;7.286;2023-01-08T06:44:17;98546.88;;;9.25;100.00
55540;BME280;41384;51.418;7.286;2023-01-08T06:46:42;98551.69;;;9.16;100.00
55540;BME280;41384;51.418;7.286;2023-01-08T06:49:08;98542.75;;;9.17;100.00
55540;BME280;41384;51.418;7.286;2023-01-08T06:51:34;98549.97;;;9.10;100.00
55540;BME280;41384;51.418;7.286;2023-01-08T06:53:59;98547.91;;;9.12;100.00
55540;BME280;41384;51.418;7.286;2023-01-08T06:56:24;98540.22;;;8.98;100.00
55540;BME280;41384;51.418;7.286;2023-01-08T06:58:50;98534.84;;;9.17;100.00
55540;BME280;41384;51.418;7.286;2023-01-08T07:01:15;98540.81;;;9.12;100.00
55540;BME280;41384;51.418;7.286;2023-01-08T07:03:41;98551.47;;;9.17;100.00
55540;BME280;41384;51.418;7.286;2023-01-08T07:06:13;98551.03;;;9.32;100.00
55540;BME280;41384;51.418;7.286;2023-01-08T07:08:39;98558.22;;;9.25;100.00
55540;BME280;41384;51.418;7.286;2023-01-08T07:11:04;98543.25;;;9.38;100.00
55540;BME280;41384;51.418;7.286;2023-01-08T07:13:29;98548.03;;;9.29;100.00
55540;BME280;41384;51.418;7.286;2023-01-08T07:15:55;98556.50;;;9.31;100.00
55540;BME280;41384;51.418;7.286;2023-01-08T07:18:20;98558.44;;;9.47;100.00
55540;BME280;41384;51.418;7.286;2023-01-08T07:20:47;98573.56;;;9.52;100.00
55540;BME280;41384;51.418;7.286;2023-01-08T07:23:12;98580.19;;;9.55;100.00
55540;BME280;41384;51.418;7.286;2023-01-08T07:25:38;98601.72;;;9.52;100.00
55540;BME280;41384;51.418;7.286;2023-01-08T07:28:03;98616.59;;;9.22;100.00
55540;BME280;41384;51.418;7.286;2023-01-08T07:30:28;98616.13;;;9.25;100.00
55540;BME280;41384;51.418;7.286;2023-01-08T07:32:57;98626.41;;;9.15;100.00
55540;BME280;41384;51.418;7.286;2023-01-08T07:35:23;98619.00;;;9.24;100.00
55540;BME280;41384;51.418;7.286;2023-01-08T07:37:48;98613.81;;;9.05;100.00
55540;BME280;41384;51.418;7.286;2023-01-08T07:40:13;98613.25;;;9.15;100.00
55540;BME280;41384;51.418;7.286;2023-01-08T07:42:38;98601.94;;;9.26;100.00
55540;BME280;41384;51.418;7.286;2023-01-08T07:45:04;98592.78;;;9.17;100.00
55540;BME280;41384;51.418;7.286;2023-01-08T07:47:30;98595.41;;;9.05;100.00
55540;BME280;41384;51.418;7.286;2023-01-08T07:49:55;98604.56;;;9.14;100.00
55540;BME280;41384;51.418;7.286;2023-01-08T07:52:20;98606.38;;;9.02;100.00
55540;BME280;41384;51.418;7.286;2023-01-08T07:54:45;98611.28;;;8.98;100.00
55540;BME280;41384;51.418;7.286;2023-01-08T07:57:11;98614.84;;;9.04;100.00
55540;BME280;41384;51.418;7.286;2023-01-08T07:59:36;98611.53;;;8.97;100.00
55540;BME280;41384;51.418;7.286;2023-01-08T08:02:01;98617.44;;;8.92;100.00
55540;BME280;41384;51.418;7.286;2023-01-08T08:04:27;98610.16;;;9.18;100.00
55540;BME280;41384;51.418;7.286;2023-01-08T08:06:53;98603.63;;;9.09;100.00
55540;BME280;41384;51.418;7.286;2023-01-08T08:09:18;98605.34;;;9.15;100.00
55540;BME280;41384;51.418;7.286;2023-01-08T08:11:43;98596.44;;;9.04;100.00
55540;BME280;41384;51.418;7.286;2023-01-08T08:14:08;98599.59;;;8.94;100.00
55540;BME280;41384;51.418;7.286;2023-01-08T08:16:34;98589.69;;;9.08;100.00
55540;BME280;41384;51.418;7.286;2023-01-08T08:18:59;98595.06;;;9.13;100.00
55540;BME280;41384;51.418;7.286;2023-01-08T08:21:25;98597.53;;;8.96;100.00
55540;BME280;41384;51.418;7.286;2023-01-08T08:23:50;98601.00;;;8.97;100.00
55540;BME280;41384;51.418;7.286;2023-01-08T08:26:16;98602.22;;;8.94;99.60
55540;BME280;41384;51.418;7.286;2023-01-08T08:28:41;98591.84;;;8.99;98.66
55540;BME280;41384;51.418;7.286;2023-01-08T08:31:06;98589.78;;;9.01;96.57
55540;BME280;41384;51.418;7.286;2023-01-08T08:33:32;98579.38;;;9.07;96.30
55540;BME280;41384;51.418;7.286;2023-01-08T08:35:57;98579.28;;;9.13;95.21
55540;BME280;41384;51.418;7.286;2023-01-08T08:38:22;98579.94;;;9.09;94.73
55540;BME280;41384;51.418;7.286;2023-01-08T08:40:49;98584.28;;;9.03;94.61
55540;BME280;41384;51.418;7.286;2023-01-08T08:43:14;98586.03;;;9.09;92.42
55540;BME280;41384;51.418;7.286;2023-01-08T08:45:39;98584.63;;;9.07;93.66
55540;BME280;41384;51.418;7.286;2023-01-08T08:48:06;98583.59;;;9.08;91.55
55540;BME280;41384;51.418;7.286;2023-01-08T08:50:31;98597.22;;;8.93;90.40
55540;BME280;41384;51.418;7.286;2023-01-08T08:53:01;98588.75;;;9.02;90.20
55540;BME280;41384;51.418;7.286;2023-01-08T08:55:27;98581.75;;;8.96;89.86
55540;BME280;41384;51.418;7.286;2023-01-08T08:57:52;98586.09;;;8.90;90.30
55540;BME280;41384;51.418;7.286;2023-01-08T09:00:18;98573.97;;;9.01;89.76
55540;BME280;41384;51.418;7.286;2023-01-08T09:02:43;98571.91;;;9.03;90.72
55540;BME280;41384;51.418;7.286;2023-01-08T09:05:09;98572.50;;;9.05;89.66
55540;BME280;41384;51.418;7.286;2023-01-08T09:07:35;98566.00;;;9.08;89.62
55540;BME280;41384;51.418;7.286;2023-01-08T09:10:01;98569.28;;;9.03;89.14
55540;BME280;41384;51.418;7.286;2023-01-08T09:12:26;98576.53;;;9.20;89.39
55540;BME280;41384;51.418;7.286;2023-01-08T09:14:51;98580.63;;;9.16;89.04
55540;BME280;41384;51.418;7.286;2023-01-08T09:17:19;98582.13;;;9.12;90.18
55540;BME280;41384;51.418;7.286;2023-01-08T09:19:45;98580.41;;;9.05;89.72
55540;BME280;41384;51.418;7.286;2023-01-08T09:22:10;98579.72;;;9.10;89.62
55540;BME280;41384;51.418;7.286;2023-01-08T09:24:36;98584.28;;;9.15;89.31
55540;BME280;41384;51.418;7.286;2023-01-08T09:27:01;98574.00;;;9.25;88.98
55540;BME280;41384;51.418;7.286;2023-01-08T09:29:26;98570.94;;;9.28;89.70
55540;BME280;41384;51.418;7.286;2023-01-08T09:31:52;98575.41;;;9.28;89.38
55540;BME280;41384;51.418;7.286;2023-01-08T09:34:17;98573.25;;;9.37;89.39
55540;BME280;41384;51.418;7.286;2023-01-08T09:36:42;98576.53;;;9.32;89.86
55540;BME280;41384;51.418;7.286;2023-01-08T09:39:08;98571.75;;;9.41;89.77
55540;BME280;41384;51.418;7.286;2023-01-08T09:41:39;98563.63;;;9.30;90.14
55540;BME280;41384;51.418;7.286;2023-01-08T09:44:06;98564.66;;;9.29;90.61
55540;BME280;41384;51.418;7.286;2023-01-08T09:46:35;98570.69;;;9.30;89.55
55540;BME280;41384;51.418;7.286;2023-01-08T09:49:05;98559.72;;;9.45;89.72
55540;BME280;41384;51.418;7.286;2023-01-08T09:51:33;98560.97;;;9.54;89.56
55540;BME280;41384;51.418;7.286;2023-01-08T09:53:59;98564.41;;;9.55;90.85
55540;BME280;41384;51.418;7.286;2023-01-08T09:56:25;98567.16;;;9.48;90.82
55540;BME280;41384;51.418;7.286;2023-01-08T09:58:57;98557.41;;;9.48;90.63
55540;BME280;41384;51.418;7.286;2023-01-08T10:01:26;98559.25;;;9.48;90.30
55540;BME280;41384;51.418;7.286;2023-01-08T10:06:28;98548.25;;;9.63;91.16
55540;BME280;41384;51.418;7.286;2023-01-08T10:08:55;98554.53;;;9.62;91.39
55540;BME280;41384;51.418;7.286;2023-01-08T10:11:21;98546.06;;;9.72;90.78
55540;BME280;41384;51.418;7.286;2023-01-08T10:13:53;98544.72;;;9.57;91.72
55540;BME280;41384;51.418;7.286;2023-01-08T10:16:33;98544.09;;;9.67;91.00
55540;BME280;41384;51.418;7.286;2023-01-08T10:19:01;98542.53;;;9.42;91.44
55540;BME280;41384;51.418;7.286;2023-01-08T10:21:30;98536.56;;;9.59;92.99
55540;BME280;41384;51.418;7.286;2023-01-08T10:23:57;98529.78;;;9.63;92.34
55540;BME280;41384;51.418;7.286;2023-01-08T10:26:31;98529.69;;;9.70;92.52
55540;BME280;41384;51.418;7.286;2023-01-08T10:31:56;98518.09;;;9.83;92.25
55540;BME280;41384;51.418;7.286;2023-01-08T10:34:42;98516.44;;;9.93;92.23
55540;BME280;41384;51.418;7.286;2023-01-08T10:37:19;98509.19;;;10.01;91.36
55540;BME280;41384;51.418;7.286;2023-01-08T10:39:47;98504.03;;;10.06;91.48
55540;BME280;41384;51.418;7.286;2023-01-08T10:42:14;98500.50;;;10.00;91.92
55540;BME280;41384;51.418;7.286;2023-01-08T10:44:58;98494.41;;;10.00;91.18
55540;BME280;41384;51.418;7.286;2023-01-08T10:47:26;98495.09;;;10.07;91.86
55540;BME280;41384;51.418;7.286;2023-01-08T10:49:53;98487.97;;;10.07;90.08
55540;BME280;41384;51.418;7.286;2023-01-08T10:54:48;98480.50;;;10.16;92.13
55540;BME280;41384;51.418;7.286;2023-01-08T10:57:29;98476.13;;;10.22;92.29
55540;BME280;41384;51.418;7.286;2023-01-08T10:59:57;98469.31;;;10.26;91.20
55540;BME280;41384;51.418;7.286;2023-01-08T11:05:00;98459.03;;;10.25;91.24
55540;BME280;41384;51.418;7.286;2023-01-08T11:07:27;98460.84;;;10.24;90.25
55540;BME280;41384;51.418;7.286;2023-01-08T11:09:53;98444.34;;;10.46;91.40
55540;BME280;41384;51.418;7.286;2023-01-08T11:12:38;98436.44;;;10.46;90.89
55540;BME280;41384;51.418;7.286;2023-01-08T11:15:22;98432.53;;;10.48;90.92
55540;BME280;41384;51.418;7.286;2023-01-08T11:17:50;98420.94;;;10.49;90.31
55540;BME280;41384;51.418;7.286;2023-01-08T11:20:27;98424.84;;;10.47;89.94
55540;BME280;41384;51.418;7.286;2023-01-08T11:23:04;98423.72;;;10.26;90.38
55540;BME280;41384;51.418;7.286;2023-01-08T11:25:30;98423.47;;;10.27;92.09
55540;BME280;41384;51.418;7.286;2023-01-08T11:27:56;98412.81;;;10.22;92.26
55540;BME280;41384;51.418;7.286;2023-01-08T11:30:25;98412.97;;;10.15;91.50
55540;BME280;41384;51.418;7.286;2023-01-08T11:32:59;98406.81;;;10.10;90.74
55540;BME280;41384;51.418;7.286;2023-01-08T11:35:36;98394.34;;;10.05;92.12
55540;BME280;41384;51.418;7.286;2023-01-08T11:38:05;98389.50;;;10.31;91.17
55540;BME280;41384;51.418;7.286;2023-01-08T11:40:50;98388.38;;;10.27;90.85
55540;BME280;41384;51.418;7.286;2023-01-08T11:43:24;98381.03;;;10.29;90.04
55540;BME280;41384;51.418;7.286;2023-01-08T11:46:37;98376.56;;;10.29;90.67
55540;BME280;41384;51.418;7.286;2023-01-08T11:52:01;98371.59;;;10.33;88.80
55540;BME280;41384;51.418;7.286;2023-01-08T11:57:35;98368.41;;;10.14;87.58
55540;BME280;41384;51.418;7.286;2023-01-08T12:11:30;98336.22;;;10.29;88.32
55540;BME280;41384;51.418;7.286;2023-01-08T12:14:20;98325.81;;;10.39;88.04
55540;BME280;41384;51.418;7.286;2023-01-08T12:17:11;98319.41;;;10.35;89.08
55540;BME280;41384;51.418;7.286;2023-01-08T12:27:50;98316.69;;;9.96;91.13
55540;BME280;41384;51.418;7.286;2023-01-08T12:35:53;98286.88;;;10.29;91.72
55540;BME280;41384;51.418;7.286;2023-01-08T12:41:06;98288.19;;;10.27;92.31
55540;BME280;41384;51.418;7.286;2023-01-08T12:43:55;98289.22;;;10.26;92.93
55540;BME280;41384;51.418;7.286;2023-01-08T12:46:23;98290.25;;;10.25;92.09
55540;BME280;41384;51.418;7.286;2023-01-08T12:48:52;98283.06;;;10.37;91.76
55540;BME280;41384;51.418;7.286;2023-01-08T12:51:34;98279.22;;;10.28;92.44
55540;BME280;41384;51.418;7.286;2023-01-08T12:56:45;98278.19;;;10.29;92.07
55540;BME280;41384;51.418;7.286;2023-01-08T12:59:28;98271.31;;;10.28;92.01
55540;BME280;41384;51.418;7.286;2023-01-08T13:07:45;98302.44;;;10.65;90.00
55540;BME280;41384;51.418;7.286;2023-01-08T13:10:33;98299.66;;;10.55;88.76
55540;BME280;41384;51.418;7.286;2023-01-08T13:13:00;98301.47;;;10.71;88.38
55540;BME280;41384;51.418;7.286;2023-01-08T13:15:28;98298.16;;;10.59;87.13
55540;BME280;41384;51.418;7.286;2023-01-08T13:17:56;98301.75;;;10.53;86.89
55540;BME280;41384;51.418;7.286;2023-01-08T13:20:28;98302.22;;;10.67;87.12
55540;BME280;41384;51.418;7.286;2023-01-08T13:22:59;98297.00;;;10.72;86.89
55540;BME280;41384;51.418;7.286;2023-01-08T13:25:36;98288.59;;;10.75;86.24
55540;BME280;41384;51.418;7.286;2023-01-08T13:30:49;98291.41;;;10.68;85.35
55540;BME280;41384;51.418;7.286;2023-01-08T13:35:49;98288.81;;;10.73;86.18
55540;BME280;41384;51.418;7.286;2023-01-08T13:38:16;98276.06;;;10.65;85.10
55540;BME280;41384;51.418;7.286;2023-01-08T13:43:19;98277.59;;;10.61;83.31
55540;BME280;41384;51.418;7.286;2023-01-08T13:46:06;98268.41;;;10.63;81.86
55540;BME280;41384;51.418;7.286;2023-01-08T13:48:36;98270.88;;;10.53;81.24
55540;BME280;41384;51.418;7.286;2023-01-08T13:51:02;98264.81;;;10.53;80.05
55540;BME280;41384;51.418;7.286;2023-01-08T13:53:28;98258.66;;;10.47;82.15
55540;BME280;41384;51.418;7.286;2023-01-08T13:55:56;98272.72;;;10.35;82.30
55540;BME280;41384;51.418;7.286;2023-01-08T13:58:27;98261.97;;;10.20;84.89
55540;BME280;41384;51.418;7.286;2023-01-08T14:00:55;98262.69;;;10.15;86.65
55540;BME280;41384;51.418;7.286;2023-01-08T14:05:46;98272.13;;;9.94;88.64
55540;BME280;41384;51.418;7.286;2023-01-08T14:08:23;98261.34;;;9.96;89.67
55540;BME280;41384;51.418;7.286;2023-01-08T14:10:49;98261.41;;;10.01;91.04
55540;BME280;41384;51.418;7.286;2023-01-08T14:13:16;98266.28;;;10.09;91.38
55540;BME280;41384;51.418;7.286;2023-01-08T14:15:42;98255.25;;;10.12;92.23
55540;BME280;41384;51.418;7.286;2023-01-08T14:18:10;98261.09;;;10.14;93.40
55540;BME280;41384;51.418;7.286;2023-01-08T14:20:39;98249.97;;;10.29;93.22
55540;BME280;41384;51.418;7.286;2023-01-08T14:23:36;98243.13;;;10.11;93.06